createdAt,value
2023-05-11T00:00:39.583Z,12.70
2023-05-11T00:03:06.695Z,12.80
2023-05-11T00:05:33.807Z,12.90
2023-05-11T00:08:01.005Z,13.10
2023-05-11T00:10:28.935Z,13.10
2023-05-11T00:12:56.513Z,13.20
2023-05-11T00:15:23.460Z,13.30
2023-05-11T00:17:50.297Z,12.60
2023-05-11T00:20:17.604Z,14.20
2023-05-11T00:22:45.031Z,12.20
2023-05-11T00:25:12.121Z,12.90
2023-05-11T00:27:39.618Z,14.00
2023-05-11T00:30:07.631Z,12.40
2023-05-11T00:32:34.543Z,12.80
2023-05-11T00:35:01.458Z,12.70
2023-05-11T00:37:28.437Z,11.10
2023-05-11T00:39:55.353Z,11.90
2023-05-11T00:42:22.239Z,12.80
2023-05-11T00:44:49.069Z,13.50
2023-05-11T00:47:16.215Z,14.00
2023-05-11T00:49:43.254Z,13.40
2023-05-11T00:52:10.110Z,14.00
2023-05-11T00:54:37.640Z,14.50
2023-05-11T00:57:04.717Z,14.40
2023-05-11T00:59:31.811Z,13.60
2023-05-11T01:01:58.883Z,14.60
2023-05-11T01:04:25.855Z,13.30
2023-05-11T01:07:13.088Z,13.40
2023-05-11T01:09:47.401Z,13.10
2023-05-11T01:12:35.657Z,13.00
2023-05-11T01:15:15.141Z,13.80
2023-05-11T01:17:52.117Z,12.40
2023-05-11T01:20:22.724Z,12.90
2023-05-11T01:23:08.191Z,12.50
2023-05-11T01:25:56.864Z,12.40
2023-05-11T01:28:56.304Z,11.60
2023-05-11T01:31:23.841Z,10.50
2023-05-11T01:33:55.692Z,12.20
2023-05-11T01:36:25.152Z,12.00
2023-05-11T01:38:52.039Z,12.90
2023-05-11T01:41:20.110Z,11.40
2023-05-11T01:43:53.321Z,10.70
2023-05-11T01:46:20.716Z,11.30
2023-05-11T01:48:49.329Z,11.50
2023-05-11T01:51:16.219Z,11.40
2023-05-11T01:53:43.009Z,12.20
2023-05-11T01:56:11.564Z,12.30
2023-05-11T01:58:39.334Z,11.60
2023-05-11T02:01:06.886Z,11.40
2023-05-11T02:03:35.726Z,10.60
2023-05-11T02:06:06.575Z,11.00
2023-05-11T02:08:33.799Z,9.50
2023-05-11T02:11:01.200Z,9.80
2023-05-11T02:13:28.737Z,11.30
2023-05-11T02:15:57.145Z,11.30
2023-05-11T02:18:24.124Z,9.50
2023-05-11T02:20:56.842Z,11.80
2023-05-11T02:23:25.057Z,10.90
2023-05-11T02:25:55.035Z,11.00
2023-05-11T02:28:22.184Z,10.30
2023-05-11T02:30:52.233Z,10.00
2023-05-11T02:33:33.307Z,9.60
2023-05-11T02:36:00.222Z,10.00
2023-05-11T02:38:38.338Z,10.20
2023-05-11T02:41:09.831Z,10.40
2023-05-11T02:43:37.197Z,11.50
2023-05-11T02:46:06.586Z,11.10
2023-05-11T02:48:39.004Z,11.20
2023-05-11T02:51:08.542Z,11.10
2023-05-11T02:53:38.683Z,10.60
2023-05-11T02:56:06.265Z,11.30
2023-05-11T02:58:33.283Z,10.10
2023-05-11T03:01:13.166Z,10.60
2023-05-11T03:03:40.469Z,9.70
2023-05-11T03:06:07.442Z,10.50
2023-05-11T03:08:34.477Z,10.20
2023-05-11T03:11:02.759Z,11.30
2023-05-11T03:13:29.584Z,10.40
2023-05-11T03:15:57.192Z,11.20
2023-05-11T03:18:24.423Z,11.00
2023-05-11T03:20:51.425Z,10.00
2023-05-11T03:23:18.813Z,10.40
2023-05-11T03:25:45.762Z,10.60
2023-05-11T03:28:12.980Z,11.10
2023-05-11T03:30:40.793Z,10.80
2023-05-11T03:33:07.646Z,10.80
2023-05-11T03:35:35.198Z,11.80
2023-05-11T03:38:03.152Z,11.70
2023-05-11T03:40:31.613Z,12.40
2023-05-11T03:43:00.423Z,11.90
2023-05-11T03:45:28.588Z,10.90
2023-05-11T03:47:55.654Z,11.50
2023-05-11T03:50:22.600Z,12.30
2023-05-11T03:52:49.502Z,12.40
2023-05-11T03:55:16.541Z,12.40
2023-05-11T03:57:43.515Z,12.80
2023-05-11T04:00:11.860Z,12.40
2023-05-11T04:02:44.895Z,13.30
2023-05-11T04:05:12.965Z,12.80
2023-05-11T04:07:41.315Z,12.30
2023-05-11T04:10:08.924Z,12.50
2023-05-11T04:12:35.860Z,12.40
2023-05-11T04:15:04.765Z,12.20
2023-05-11T04:17:31.841Z,11.90
2023-05-11T04:19:58.736Z,12.50
2023-05-11T04:22:25.815Z,12.20
2023-05-11T04:24:52.619Z,13.20
2023-05-11T04:27:19.592Z,12.50
2023-05-11T04:29:46.407Z,12.00
2023-05-11T04:32:13.303Z,12.40
2023-05-11T04:34:40.146Z,12.30
2023-05-11T04:37:08.147Z,13.50
2023-05-11T04:39:36.680Z,12.90
2023-05-11T04:42:04.143Z,11.70
2023-05-11T04:44:31.658Z,12.40
2023-05-11T04:46:58.549Z,11.60
2023-05-11T04:49:25.434Z,12.20
2023-05-11T04:51:52.348Z,11.70
2023-05-11T04:54:19.255Z,11.20
2023-05-11T04:56:46.662Z,11.40
2023-05-11T04:59:14.282Z,12.10
2023-05-11T05:01:41.230Z,11.90
2023-05-11T05:04:08.857Z,11.30
2023-05-11T05:06:35.825Z,9.70
2023-05-11T05:09:03.377Z,10.00
2023-05-11T05:11:30.465Z,9.60
2023-05-11T05:13:57.360Z,9.60
2023-05-11T05:16:24.199Z,8.80
2023-05-11T05:18:51.373Z,9.60
2023-05-11T05:21:18.412Z,9.70
2023-05-11T05:23:45.402Z,10.30
2023-05-11T05:26:12.214Z,9.80
2023-05-11T05:28:40.031Z,9.00
2023-05-11T05:31:06.908Z,9.00
2023-05-11T05:33:33.940Z,9.60
2023-05-11T05:36:00.850Z,9.10
2023-05-11T05:38:27.660Z,9.00
2023-05-11T05:40:56.195Z,9.50
2023-05-11T05:43:23.001Z,8.70
2023-05-11T05:45:50.137Z,9.30
2023-05-11T05:48:17.032Z,8.60
2023-05-11T05:50:43.840Z,7.70
2023-05-11T05:53:10.922Z,7.30
2023-05-11T05:55:38.070Z,8.70
2023-05-11T05:58:05.838Z,8.30
2023-05-11T06:00:32.759Z,7.70
2023-05-11T06:03:02.933Z,7.70
2023-05-11T06:05:29.918Z,7.70
2023-05-11T06:08:09.228Z,7.00
2023-05-11T06:10:38.350Z,5.10
2023-05-11T06:13:05.501Z,7.30
2023-05-11T06:15:32.409Z,6.30
2023-05-11T06:18:03.292Z,5.60
2023-05-11T06:20:31.819Z,5.20
2023-05-11T06:22:58.837Z,3.10
2023-05-11T06:25:27.745Z,3.40
2023-05-11T06:27:54.657Z,3.50
2023-05-11T06:30:24.816Z,3.30
2023-05-11T06:32:52.200Z,3.90
2023-05-11T06:35:19.826Z,3.60
2023-05-11T06:37:47.038Z,4.10
2023-05-11T06:40:16.544Z,3.10
2023-05-11T06:42:43.808Z,3.10
2023-05-11T06:45:11.461Z,3.30
2023-05-11T06:47:41.777Z,2.90
2023-05-11T06:50:08.776Z,2.80
2023-05-11T06:52:37.410Z,4.20
2023-05-11T06:55:05.058Z,3.10
2023-05-11T06:57:31.866Z,3.10
2023-05-11T06:59:58.652Z,4.00
2023-05-11T07:02:25.620Z,4.50
2023-05-11T07:04:52.937Z,3.60
2023-05-11T07:07:20.000Z,3.60
2023-05-11T07:09:46.930Z,3.70
2023-05-11T07:12:13.870Z,3.40
2023-05-11T07:14:40.845Z,3.50
2023-05-11T07:17:08.043Z,4.20
2023-05-11T07:19:34.986Z,3.60
2023-05-11T07:22:02.326Z,3.30
2023-05-11T07:24:29.220Z,3.30
2023-05-11T07:26:57.522Z,3.50
2023-05-11T07:29:24.481Z,3.40
2023-05-11T07:31:51.826Z,9.40
2023-05-11T07:34:18.904Z,6.20
2023-05-11T07:36:46.711Z,3.30
2023-05-11T07:39:16.266Z,3.00
2023-05-11T07:41:43.134Z,3.10
2023-05-11T07:44:10.359Z,3.70
2023-05-11T07:46:37.274Z,3.30
2023-05-11T07:49:15.668Z,2.90
2023-05-11T07:51:47.498Z,2.90
2023-05-11T07:54:14.507Z,3.10
2023-05-11T07:56:42.233Z,2.50
2023-05-11T07:59:09.384Z,2.90
2023-05-11T08:01:36.975Z,2.40
2023-05-11T08:04:03.871Z,2.40
2023-05-11T08:06:31.387Z,2.30
2023-05-11T08:08:58.458Z,3.10
2023-05-11T08:11:26.463Z,2.80
2023-05-11T08:13:53.361Z,2.60
2023-05-11T08:16:20.339Z,3.00
2023-05-11T08:18:47.951Z,4.30
2023-05-11T08:21:14.900Z,2.80
2023-05-11T08:23:43.909Z,2.40
2023-05-11T08:26:12.072Z,2.40
2023-05-11T08:28:38.917Z,2.40
2023-05-11T08:31:06.573Z,2.80
2023-05-11T08:33:38.419Z,3.40
2023-05-11T08:36:07.229Z,3.30
2023-05-11T08:38:35.526Z,2.70
2023-05-11T08:41:03.168Z,3.10
2023-05-11T08:43:29.942Z,2.70
2023-05-11T08:45:58.185Z,2.50
2023-05-11T08:48:25.101Z,3.00
2023-05-11T08:50:52.102Z,2.80
2023-05-11T08:53:18.922Z,2.70
2023-05-11T08:55:45.711Z,2.90
2023-05-11T08:58:15.158Z,2.30
2023-05-11T09:00:44.394Z,2.30
2023-05-11T09:03:11.240Z,2.80
2023-05-11T09:05:38.155Z,2.90
2023-05-11T09:08:05.222Z,2.30
2023-05-11T09:10:32.732Z,2.90
2023-05-11T09:12:59.671Z,2.50
2023-05-11T09:15:26.925Z,2.10
2023-05-11T09:17:53.772Z,2.20
2023-05-11T09:20:28.536Z,2.20
2023-05-11T09:22:56.344Z,2.10
2023-05-11T09:25:23.676Z,2.10
2023-05-11T09:27:50.698Z,2.10
2023-05-11T09:30:22.405Z,2.10
2023-05-11T09:32:53.863Z,2.10
2023-05-11T09:35:22.503Z,1.90
2023-05-11T09:38:09.872Z,2.10
2023-05-11T09:40:38.172Z,2.30
2023-05-11T09:43:24.584Z,2.40
2023-05-11T09:45:52.603Z,2.00
2023-05-11T09:48:19.608Z,2.10
2023-05-11T09:50:50.518Z,2.40
2023-05-11T09:53:17.425Z,2.20
2023-05-11T09:55:56.975Z,2.00
2023-05-11T09:58:24.077Z,1.90
2023-05-11T10:00:52.026Z,2.20
2023-05-11T10:03:19.037Z,2.10
2023-05-11T10:06:00.768Z,2.00
2023-05-11T10:08:32.182Z,2.40
2023-05-11T10:10:59.047Z,2.00
2023-05-11T10:13:27.098Z,2.20
2023-05-11T10:15:54.754Z,2.40
2023-05-11T10:18:21.663Z,2.80
2023-05-11T10:20:48.731Z,2.60
2023-05-11T10:23:16.628Z,2.10
2023-05-11T10:25:43.581Z,1.90
2023-05-11T10:28:10.962Z,2.40
2023-05-11T10:30:38.192Z,2.30
2023-05-11T10:35:14.715Z,2.20
2023-05-11T10:37:42.973Z,2.40
2023-05-11T10:40:10.783Z,2.20
2023-05-11T10:42:40.593Z,2.40
2023-05-11T10:45:17.377Z,3.00
2023-05-11T10:47:56.530Z,2.30
2023-05-11T10:50:34.232Z,2.30
2023-05-11T10:53:19.611Z,2.30
2023-05-11T10:56:10.384Z,1.90
2023-05-11T10:58:48.516Z,2.50
2023-05-11T11:01:21.578Z,2.50
2023-05-11T11:04:10.986Z,2.10
2023-05-11T11:06:39.339Z,2.40
2023-05-11T11:09:15.626Z,2.60
2023-05-11T11:11:47.506Z,2.10
2023-05-11T11:14:15.398Z,2.30
2023-05-11T11:17:09.692Z,2.20
2023-05-11T11:19:37.753Z,2.30
2023-05-11T11:22:05.212Z,2.20
2023-05-11T11:24:35.072Z,2.50
2023-05-11T11:27:01.968Z,2.50
2023-05-11T11:29:30.331Z,2.30
2023-05-11T11:32:19.882Z,2.80
2023-05-11T11:34:47.390Z,2.60
2023-05-11T11:37:15.300Z,1.90
2023-05-11T11:39:42.110Z,2.20
2023-05-11T11:42:09.950Z,2.10
2023-05-11T11:44:40.685Z,2.30
2023-05-11T11:47:20.822Z,2.60
2023-05-11T11:49:52.404Z,2.30
2023-05-11T11:52:31.748Z,4.50
2023-05-11T11:55:02.595Z,5.80
2023-05-11T11:57:35.816Z,4.10
2023-05-11T12:02:44.288Z,2.70
2023-05-11T12:05:18.784Z,2.30
2023-05-11T12:07:54.492Z,2.10
2023-05-11T12:10:22.498Z,2.40
2023-05-11T12:12:51.015Z,2.30
2023-05-11T12:15:25.251Z,2.40
2023-05-11T12:17:52.271Z,2.10
2023-05-11T12:20:19.804Z,2.40
2023-05-11T12:22:49.251Z,2.30
2023-05-11T12:25:18.347Z,2.20
2023-05-11T12:27:52.777Z,2.20
2023-05-11T12:30:24.131Z,2.40
2023-05-11T12:32:56.630Z,2.40
2023-05-11T12:35:30.922Z,2.10
2023-05-11T12:37:59.711Z,2.50
2023-05-11T12:40:26.768Z,1.90
2023-05-11T12:42:54.921Z,2.30
2023-05-11T12:45:23.534Z,2.20
2023-05-11T12:47:51.675Z,2.30
2023-05-11T12:50:18.925Z,2.50
2023-05-11T12:52:45.845Z,2.20
2023-05-11T12:55:12.753Z,2.00
2023-05-11T12:57:40.235Z,2.40
2023-05-11T13:00:14.864Z,2.40
2023-05-11T13:02:50.037Z,2.50
2023-05-11T13:05:19.453Z,1.90
2023-05-11T13:07:46.771Z,2.10
2023-05-11T13:10:14.373Z,2.00
2023-05-11T13:12:51.862Z,1.70
2023-05-11T13:15:19.850Z,2.10
2023-05-11T13:17:47.869Z,1.50
2023-05-11T13:20:28.702Z,1.80
2023-05-11T13:23:10.200Z,2.20
2023-05-11T13:25:46.247Z,2.00
2023-05-11T13:28:17.049Z,1.90
2023-05-11T13:30:44.165Z,3.20
2023-05-11T13:33:11.038Z,2.60
2023-05-11T13:35:41.806Z,2.30
2023-05-11T13:38:12.070Z,2.40
2023-05-11T13:40:39.515Z,2.20
2023-05-11T13:43:06.680Z,1.90
2023-05-11T13:45:33.725Z,2.50
2023-05-11T13:48:00.980Z,2.40
2023-05-11T13:50:27.917Z,2.20
2023-05-11T13:52:54.865Z,2.20
2023-05-11T13:55:21.857Z,2.10
2023-05-11T13:57:49.050Z,1.90
2023-05-11T14:00:16.816Z,1.90
2023-05-11T14:02:44.304Z,2.20
2023-05-11T14:05:11.532Z,1.80
2023-05-11T14:07:46.777Z,2.10
2023-05-11T14:10:15.994Z,1.90
2023-05-11T14:12:43.020Z,1.90
2023-05-11T14:15:10.508Z,2.20
2023-05-11T14:17:37.654Z,2.00
2023-05-11T14:20:08.196Z,2.10
2023-05-11T14:22:35.116Z,2.00
2023-05-11T14:25:02.093Z,1.70
2023-05-11T14:27:28.920Z,2.20
2023-05-11T14:29:55.944Z,2.10
2023-05-11T14:32:23.005Z,2.20
2023-05-11T14:34:50.064Z,1.90
2023-05-11T14:37:17.016Z,2.30
2023-05-11T14:39:44.094Z,2.30
2023-05-11T14:42:10.877Z,1.90
2023-05-11T14:44:38.076Z,1.80
2023-05-11T14:47:05.633Z,2.10
2023-05-11T14:49:32.539Z,2.50
2023-05-11T14:51:59.778Z,1.90
2023-05-11T14:54:26.772Z,2.20
2023-05-11T14:56:55.827Z,2.20
2023-05-11T14:59:26.452Z,2.20
2023-05-11T15:01:53.466Z,1.60
2023-05-11T15:04:20.811Z,2.10
2023-05-11T15:06:48.138Z,1.90
2023-05-11T15:09:15.041Z,1.90
2023-05-11T15:11:41.875Z,2.20
2023-05-11T15:14:08.702Z,2.20
2023-05-11T15:16:35.536Z,2.10
2023-05-11T15:19:02.546Z,2.10
2023-05-11T15:21:29.616Z,2.20
2023-05-11T15:23:56.655Z,2.20
2023-05-11T15:26:23.518Z,2.00
2023-05-11T15:28:50.366Z,1.80
2023-05-11T15:31:17.977Z,1.80
2023-05-11T15:33:45.182Z,1.80
2023-05-11T15:36:13.270Z,2.00
2023-05-11T15:38:40.992Z,2.00
2023-05-11T15:41:08.002Z,2.30
2023-05-11T15:43:34.973Z,2.20
2023-05-11T15:46:04.107Z,2.40
2023-05-11T15:48:31.517Z,2.00
2023-05-11T15:51:01.483Z,2.20
2023-05-11T15:53:28.944Z,2.10
2023-05-11T15:55:56.910Z,2.50
2023-05-11T15:58:23.788Z,2.30
2023-05-11T16:00:51.503Z,2.10
2023-05-11T16:03:20.065Z,2.00
2023-05-11T16:05:47.236Z,2.10
2023-05-11T16:08:14.754Z,1.60
2023-05-11T16:10:41.652Z,1.90
2023-05-11T16:13:09.197Z,2.10
2023-05-11T16:15:36.077Z,1.90
2023-05-11T16:18:04.844Z,2.40
2023-05-11T16:20:32.333Z,2.40
2023-05-11T16:22:59.470Z,3.00
2023-05-11T16:25:26.747Z,2.60
2023-05-11T16:27:53.525Z,5.10
2023-05-11T16:30:24.901Z,6.20
2023-05-11T16:32:53.250Z,4.20
2023-05-11T16:35:20.638Z,4.50
2023-05-11T16:37:48.113Z,3.90
2023-05-11T16:40:19.214Z,3.80
2023-05-11T16:42:47.581Z,4.20
2023-05-11T16:45:15.331Z,3.30
2023-05-11T16:47:45.300Z,2.70
2023-05-11T16:50:16.590Z,2.50
2023-05-11T16:52:43.837Z,3.00
2023-05-11T16:55:11.155Z,2.60
2023-05-11T16:57:38.034Z,2.40
2023-05-11T17:00:06.987Z,2.50
2023-05-11T17:02:34.009Z,3.10
2023-05-11T17:07:10.376Z,3.30
2023-05-11T17:09:37.192Z,2.50
2023-05-11T17:12:07.284Z,2.60
2023-05-11T17:14:34.100Z,3.90
2023-05-11T17:25:03.427Z,4.70
2023-05-11T17:27:31.319Z,9.00
2023-05-11T17:29:58.184Z,10.50
2023-05-11T17:32:25.441Z,13.60
2023-05-11T17:34:52.639Z,9.60
2023-05-11T17:37:30.508Z,8.70
2023-05-11T17:39:58.467Z,7.10
2023-05-11T17:42:26.229Z,5.00
2023-05-11T17:44:53.111Z,5.00
2023-05-11T17:47:20.006Z,4.90
2023-05-11T17:49:46.904Z,6.30
2023-05-11T17:52:15.496Z,7.00
2023-05-11T17:54:42.452Z,8.40
2023-05-11T17:57:10.058Z,10.10
2023-05-11T17:59:37.004Z,9.70
2023-05-11T18:02:04.468Z,13.10
2023-05-11T18:04:31.350Z,13.70
2023-05-11T18:13:39.190Z,9.80
2023-05-11T18:16:06.636Z,11.90
2023-05-11T18:18:34.070Z,13.80
2023-05-11T18:21:05.528Z,13.70
2023-05-11T18:23:32.516Z,14.30
2023-05-11T18:25:59.409Z,16.50
2023-05-11T18:28:26.276Z,14.90
2023-05-11T18:33:57.921Z,13.20
2023-05-11T18:36:25.032Z,11.30
2023-05-11T18:38:52.034Z,9.80
2023-05-11T18:41:19.065Z,10.10
2023-05-11T18:43:47.870Z,8.70
2023-05-11T18:46:14.935Z,8.30
2023-05-11T18:48:41.752Z,7.80
2023-05-11T18:51:09.024Z,7.90
2023-05-11T18:53:35.928Z,8.50
2023-05-11T18:56:02.986Z,9.80
2023-05-11T18:58:30.163Z,11.90
2023-05-11T19:00:57.225Z,12.40
2023-05-11T19:03:24.587Z,14.10
2023-05-11T19:05:51.853Z,13.70
2023-05-11T19:08:18.997Z,11.80
2023-05-11T19:10:47.485Z,10.20
2023-05-11T19:13:15.104Z,9.60
2023-05-11T19:15:42.114Z,8.60
2023-05-11T19:18:09.238Z,9.10
2023-05-11T19:20:39.006Z,8.70
2023-05-11T19:23:06.126Z,9.90
2023-05-11T19:25:33.175Z,9.90
2023-05-11T19:28:00.454Z,10.40
2023-05-11T19:30:27.276Z,9.70
2023-05-11T19:32:53.992Z,11.30
2023-05-11T19:35:21.069Z,10.20
2023-05-11T19:37:49.962Z,9.50
2023-05-11T19:42:47.817Z,11.40
2023-05-11T19:45:15.043Z,13.80
2023-05-11T19:47:41.994Z,14.40
2023-05-11T19:50:10.468Z,14.50
2023-05-11T19:52:38.414Z,12.80
2023-05-11T19:55:06.012Z,12.50
2023-05-11T19:57:36.594Z,13.80
2023-05-11T20:00:07.332Z,12.90
2023-05-11T20:02:35.291Z,11.80
2023-05-11T20:05:03.694Z,11.70
2023-05-11T20:07:31.548Z,11.60
2023-05-11T20:09:58.370Z,10.80
2023-05-11T20:12:25.296Z,10.00
2023-05-11T20:14:52.382Z,9.50
2023-05-11T20:17:19.065Z,10.00
2023-05-11T20:19:45.869Z,10.60
2023-05-11T20:22:12.848Z,11.00
2023-05-11T20:24:39.762Z,12.50
2023-05-11T20:27:08.989Z,11.80
2023-05-11T20:29:35.884Z,11.70
2023-05-11T20:32:02.847Z,12.50
2023-05-11T20:34:29.785Z,12.50
2023-05-11T20:36:56.742Z,12.10
2023-05-11T20:39:23.534Z,12.10
2023-05-11T20:41:50.263Z,12.20
2023-05-11T20:44:17.048Z,12.40
2023-05-11T20:54:54.779Z,12.50
2023-05-11T20:57:21.773Z,12.50
2023-05-11T21:02:19.938Z,13.50
2023-05-11T21:04:47.126Z,11.90
2023-05-11T21:10:32.261Z,12.40
2023-05-11T21:13:00.803Z,12.20
2023-05-11T21:15:27.635Z,12.60
2023-05-11T21:17:54.330Z,11.50
2023-05-11T21:20:21.521Z,12.10
2023-05-11T21:22:48.235Z,11.10
2023-05-11T21:25:14.946Z,12.20
2023-05-11T21:27:42.123Z,12.70
2023-05-11T21:30:09.439Z,11.80
2023-05-11T21:32:37.067Z,12.40
2023-05-11T21:35:04.555Z,10.40
2023-05-11T21:37:33.247Z,10.70
2023-05-11T21:40:00.042Z,10.70
2023-05-11T21:42:26.798Z,10.40
2023-05-11T21:44:53.448Z,10.80
2023-05-11T21:47:20.278Z,9.50
2023-05-11T21:49:48.194Z,11.00
2023-05-11T21:52:16.920Z,10.50
2023-05-11T21:54:43.689Z,10.00
2023-05-11T21:57:10.412Z,9.70
2023-05-11T21:59:37.041Z,10.00
2023-05-11T22:02:03.979Z,11.20
2023-05-11T22:04:30.834Z,11.90
2023-05-11T22:07:01.621Z,12.40
2023-05-11T22:09:29.463Z,12.10
2023-05-11T22:11:56.868Z,12.30
2023-05-11T22:14:23.547Z,12.10
2023-05-11T22:16:50.302Z,12.30
2023-05-11T22:19:17.283Z,12.30
2023-05-11T22:21:44.022Z,12.70
2023-05-11T22:24:10.965Z,13.20
2023-05-11T22:26:37.638Z,11.80
2023-05-11T22:29:04.936Z,11.50
2023-05-11T22:31:31.687Z,12.60
2023-05-11T22:33:58.671Z,11.60
2023-05-11T22:36:25.241Z,11.70
2023-05-11T22:46:33.598Z,11.20
2023-05-11T22:49:00.543Z,11.30
2023-05-11T22:51:27.530Z,11.00
2023-05-11T22:53:55.012Z,12.60
2023-05-11T22:56:22.373Z,11.10
2023-05-11T22:58:49.134Z,11.60
2023-05-11T23:01:15.976Z,9.70
2023-05-11T23:03:42.932Z,11.70
2023-05-11T23:06:09.847Z,10.20
2023-05-11T23:08:36.748Z,10.30
2023-05-11T23:11:04.482Z,10.20
2023-05-11T23:13:31.269Z,12.40
2023-05-11T23:15:58.102Z,13.50
2023-05-11T23:18:25.034Z,13.40
2023-05-11T23:20:56.830Z,11.50
2023-05-11T23:23:24.486Z,10.90
2023-05-11T23:25:52.152Z,11.10
2023-05-11T23:28:19.568Z,10.70
2023-05-11T23:30:46.672Z,13.20
2023-05-11T23:33:14.533Z,12.00
2023-05-11T23:35:41.602Z,11.50
2023-05-11T23:38:08.477Z,9.90
2023-05-11T23:40:35.731Z,9.80
2023-05-11T23:43:02.527Z,10.30
2023-05-11T23:45:29.324Z,10.00
2023-05-11T23:47:56.452Z,9.20
2023-05-11T23:50:23.564Z,9.80
2023-05-11T23:52:50.365Z,9.60
2023-05-11T23:55:17.278Z,10.10
2023-05-11T23:57:44.994Z,9.90
